sensor_id;sensor_type;location;lat;lon;timestamp;temperature;humidity
22706;DHT22;11520;51.198;4.468;2022-12-01T00:01:14;6.10;99.90
22706;DHT22;11520;51.198;4.468;2022-12-01T00:03:40;6.20;99.90
22706;DHT22;11520;51.198;4.468;2022-12-01T00:06:14;6.10;99.90
22706;DHT22;11520;51.198;4.468;2022-12-01T00:08:42;6.10;99.90
22706;DHT22;11520;51.198;4.468;2022-12-01T00:11:29;6.00;99.90
22706;DHT22;11520;51.198;4.468;2022-12-01T00:13:55;6.00;99.90
22706;DHT22;11520;51.198;4.468;2022-12-01T00:16:20;6.00;99.90
22706;DHT22;11520;51.198;4.468;2022-12-01T00:18:49;6.20;99.90
22706;DHT22;11520;51.198;4.468;2022-12-01T00:21:16;6.30;99.90
22706;DHT22;11520;51.198;4.468;2022-12-01T00:23:43;6.40;99.90
22706;DHT22;11520;51.198;4.468;2022-12-01T00:26:09;6.40;99.90
22706;DHT22;11520;51.198;4.468;2022-12-01T00:28:34;6.30;99.90
22706;DHT22;11520;51.198;4.468;2022-12-01T00:31:06;6.20;99.90
22706;DHT22;11520;51.198;4.468;2022-12-01T00:33:33;6.20;99.90
22706;DHT22;11520;51.198;4.468;2022-12-01T00:36:00;6.10;99.90
22706;DHT22;11520;51.198;4.468;2022-12-01T00:38:26;6.20;99.90
22706;DHT22;11520;51.198;4.468;2022-12-01T00:40:53;6.00;99.90
22706;DHT22;11520;51.198;4.468;2022-12-01T00:43:20;5.90;99.90
22706;DHT22;11520;51.198;4.468;2022-12-01T00:45:45;6.00;99.90
22706;DHT22;11520;51.198;4.468;2022-12-01T00:48:12;5.90;99.90
22706;DHT22;11520;51.198;4.468;2022-12-01T00:50:38;5.90;99.90
22706;DHT22;11520;51.198;4.468;2022-12-01T00:53:03;6.10;99.90
22706;DHT22;11520;51.198;4.468;2022-12-01T00:55:29;6.00;99.90
22706;DHT22;11520;51.198;4.468;2022-12-01T00:57:54;6.10;99.90
22706;DHT22;11520;51.198;4.468;2022-12-01T01:00:20;6.20;99.90
22706;DHT22;11520;51.198;4.468;2022-12-01T01:02:46;6.30;99.90
22706;DHT22;11520;51.198;4.468;2022-12-01T01:05:11;6.30;99.90
22706;DHT22;11520;51.198;4.468;2022-12-01T01:07:37;6.40;99.90
22706;DHT22;11520;51.198;4.468;2022-12-01T01:10:03;6.20;99.90
22706;DHT22;11520;51.198;4.468;2022-12-01T01:12:29;6.10;99.90
22706;DHT22;11520;51.198;4.468;2022-12-01T01:14:56;6.20;99.90
22706;DHT22;11520;51.198;4.468;2022-12-01T01:17:21;6.20;99.90
22706;DHT22;11520;51.198;4.468;2022-12-01T01:19:47;6.20;99.90
22706;DHT22;11520;51.198;4.468;2022-12-01T01:22:13;6.30;99.90
22706;DHT22;11520;51.198;4.468;2022-12-01T01:24:38;6.30;99.90
22706;DHT22;11520;51.198;4.468;2022-12-01T01:27:04;6.30;99.90
22706;DHT22;11520;51.198;4.468;2022-12-01T01:29:32;6.10;99.90
22706;DHT22;11520;51.198;4.468;2022-12-01T01:31:59;6.00;99.90
22706;DHT22;11520;51.198;4.468;2022-12-01T01:34:24;5.90;99.90
22706;DHT22;11520;51.198;4.468;2022-12-01T01:36:50;5.80;99.90
22706;DHT22;11520;51.198;4.468;2022-12-01T01:39:17;5.80;99.90
22706;DHT22;11520;51.198;4.468;2022-12-01T01:41:46;6.00;99.90
22706;DHT22;11520;51.198;4.468;2022-12-01T01:44:46;6.00;99.90
22706;DHT22;11520;51.198;4.468;2022-12-01T01:47:12;6.20;99.90
22706;DHT22;11520;51.198;4.468;2022-12-01T01:49:40;6.30;99.90
22706;DHT22;11520;51.198;4.468;2022-12-01T01:52:06;6.40;99.90
22706;DHT22;11520;51.198;4.468;2022-12-01T01:54:37;6.30;99.90
22706;DHT22;11520;51.198;4.468;2022-12-01T01:57:05;6.20;99.90
22706;DHT22;11520;51.198;4.468;2022-12-01T01:59:46;6.20;99.90
22706;DHT22;11520;51.198;4.468;2022-12-01T02:02:15;6.10;99.90
22706;DHT22;11520;51.198;4.468;2022-12-01T02:04:46;6.00;99.90
22706;DHT22;11520;51.198;4.468;2022-12-01T02:07:16;5.90;99.90
22706;DHT22;11520;51.198;4.468;2022-12-01T02:09:42;6.00;99.90
22706;DHT22;11520;51.198;4.468;2022-12-01T02:20:41;6.10;99.90
22706;DHT22;11520;51.198;4.468;2022-12-01T02:26:29;6.10;99.90
22706;DHT22;11520;51.198;4.468;2022-12-01T02:38:20;6.20;99.90
22706;DHT22;11520;51.198;4.468;2022-12-01T02:43:40;6.00;99.90
22706;DHT22;11520;51.198;4.468;2022-12-01T02:46:11;5.90;99.90
22706;DHT22;11520;51.198;4.468;2022-12-01T02:48:42;5.80;99.90
22706;DHT22;11520;51.198;4.468;2022-12-01T02:51:18;5.80;99.90
22706;DHT22;11520;51.198;4.468;2022-12-01T02:53:45;5.70;99.90
22706;DHT22;11520;51.198;4.468;2022-12-01T02:56:12;5.80;99.90
22706;DHT22;11520;51.198;4.468;2022-12-01T02:58:41;5.80;99.90
22706;DHT22;11520;51.198;4.468;2022-12-01T03:07:11;6.10;99.90
22706;DHT22;11520;51.198;4.468;2022-12-01T03:12:36;6.20;99.90
22706;DHT22;11520;51.198;4.468;2022-12-01T03:17:55;6.30;99.90
22706;DHT22;11520;51.198;4.468;2022-12-01T03:20:36;6.30;99.90
22706;DHT22;11520;51.198;4.468;2022-12-01T03:23:13;6.30;99.90
22706;DHT22;11520;51.198;4.468;2022-12-01T03:25:43;6.30;99.90
22706;DHT22;11520;51.198;4.468;2022-12-01T03:28:13;6.40;99.90
22706;DHT22;11520;51.198;4.468;2022-12-01T03:30:41;6.40;99.90
22706;DHT22;11520;51.198;4.468;2022-12-01T03:33:24;6.40;99.90
22706;DHT22;11520;51.198;4.468;2022-12-01T03:36:05;6.40;99.90
22706;DHT22;11520;51.198;4.468;2022-12-01T03:38:33;6.40;99.90
22706;DHT22;11520;51.198;4.468;2022-12-01T03:41:09;6.40;99.90
22706;DHT22;11520;51.198;4.468;2022-12-01T03:43:40;6.40;99.90
22706;DHT22;11520;51.198;4.468;2022-12-01T03:48:37;6.50;99.90
22706;DHT22;11520;51.198;4.468;2022-12-01T03:51:20;6.50;99.90
22706;DHT22;11520;51.198;4.468;2022-12-01T03:54:10;6.50;99.90
22706;DHT22;11520;51.198;4.468;2022-12-01T03:56:54;6.50;99.90
22706;DHT22;11520;51.198;4.468;2022-12-01T03:59:23;6.60;99.90
22706;DHT22;11520;51.198;4.468;2022-12-01T04:01:50;6.50;99.90
22706;DHT22;11520;51.198;4.468;2022-12-01T04:04:16;6.50;99.90
22706;DHT22;11520;51.198;4.468;2022-12-01T04:06:45;6.40;99.90
22706;DHT22;11520;51.198;4.468;2022-12-01T04:09:11;6.40;99.90
22706;DHT22;11520;51.198;4.468;2022-12-01T04:11:37;6.40;99.90
22706;DHT22;11520;51.198;4.468;2022-12-01T04:14:22;6.40;99.90
22706;DHT22;11520;51.198;4.468;2022-12-01T04:16:47;6.30;99.90
22706;DHT22;11520;51.198;4.468;2022-12-01T04:19:14;6.30;99.90
22706;DHT22;11520;51.198;4.468;2022-12-01T04:21:41;6.20;99.90
22706;DHT22;11520;51.198;4.468;2022-12-01T04:24:07;6.20;99.90
22706;DHT22;11520;51.198;4.468;2022-12-01T04:26:35;6.20;99.90
22706;DHT22;11520;51.198;4.468;2022-12-01T04:29:03;6.20;99.90
22706;DHT22;11520;51.198;4.468;2022-12-01T04:31:30;6.30;99.90
22706;DHT22;11520;51.198;4.468;2022-12-01T04:33:57;6.30;99.90
22706;DHT22;11520;51.198;4.468;2022-12-01T04:36:24;6.40;99.90
22706;DHT22;11520;51.198;4.468;2022-12-01T04:38:50;6.50;99.90
22706;DHT22;11520;51.198;4.468;2022-12-01T04:41:16;6.60;99.90
22706;DHT22;11520;51.198;4.468;2022-12-01T04:43:43;6.50;99.90
22706;DHT22;11520;51.198;4.468;2022-12-01T04:46:10;6.50;99.90
22706;DHT22;11520;51.198;4.468;2022-12-01T04:48:36;6.50;99.90
22706;DHT22;11520;51.198;4.468;2022-12-01T04:51:07;6.60;99.90
22706;DHT22;11520;51.198;4.468;2022-12-01T04:53:34;6.60;99.90
22706;DHT22;11520;51.198;4.468;2022-12-01T04:56:01;6.50;99.90
22706;DHT22;11520;51.198;4.468;2022-12-01T04:58:27;6.50;99.90
22706;DHT22;11520;51.198;4.468;2022-12-01T05:00:54;6.50;99.90
22706;DHT22;11520;51.198;4.468;2022-12-01T05:03:20;6.50;99.90
22706;DHT22;11520;51.198;4.468;2022-12-01T05:05:45;6.50;99.90
22706;DHT22;11520;51.198;4.468;2022-12-01T05:08:11;6.50;99.90
22706;DHT22;11520;51.198;4.468;2022-12-01T05:10:38;6.50;99.90
22706;DHT22;11520;51.198;4.468;2022-12-01T05:13:04;6.70;99.90
22706;DHT22;11520;51.198;4.468;2022-12-01T05:15:31;6.60;99.90
22706;DHT22;11520;51.198;4.468;2022-12-01T05:17:57;6.60;99.90
22706;DHT22;11520;51.198;4.468;2022-12-01T05:20:25;6.70;99.90
22706;DHT22;11520;51.198;4.468;2022-12-01T05:23:32;6.60;99.90
22706;DHT22;11520;51.198;4.468;2022-12-01T05:25:58;6.50;99.90
22706;DHT22;11520;51.198;4.468;2022-12-01T05:28:25;6.60;99.90
22706;DHT22;11520;51.198;4.468;2022-12-01T05:30:51;6.60;99.90
22706;DHT22;11520;51.198;4.468;2022-12-01T05:33:21;6.40;99.90
22706;DHT22;11520;51.198;4.468;2022-12-01T05:35:47;6.30;99.90
22706;DHT22;11520;51.198;4.468;2022-12-01T05:38:13;6.30;99.90
22706;DHT22;11520;51.198;4.468;2022-12-01T05:40:39;6.30;99.90
22706;DHT22;11520;51.198;4.468;2022-12-01T05:43:05;6.30;99.90
22706;DHT22;11520;51.198;4.468;2022-12-01T05:45:32;6.20;99.90
22706;DHT22;11520;51.198;4.468;2022-12-01T05:48:00;6.30;99.90
22706;DHT22;11520;51.198;4.468;2022-12-01T05:50:27;6.30;99.90
22706;DHT22;11520;51.198;4.468;2022-12-01T05:52:56;6.40;99.90
22706;DHT22;11520;51.198;4.468;2022-12-01T05:55:22;6.40;99.90
22706;DHT22;11520;51.198;4.468;2022-12-01T05:57:48;6.40;99.90
22706;DHT22;11520;51.198;4.468;2022-12-01T06:00:14;6.30;99.90
22706;DHT22;11520;51.198;4.468;2022-12-01T06:02:46;6.30;99.90
22706;DHT22;11520;51.198;4.468;2022-12-01T06:05:14;6.30;99.90
22706;DHT22;11520;51.198;4.468;2022-12-01T06:07:41;6.30;99.90
22706;DHT22;11520;51.198;4.468;2022-12-01T06:10:09;6.20;99.90
22706;DHT22;11520;51.198;4.468;2022-12-01T06:12:36;6.10;99.90
22706;DHT22;11520;51.198;4.468;2022-12-01T06:15:05;6.10;99.90
22706;DHT22;11520;51.198;4.468;2022-12-01T06:17:32;6.00;99.90
22706;DHT22;11520;51.198;4.468;2022-12-01T06:19:59;5.90;99.90
22706;DHT22;11520;51.198;4.468;2022-12-01T06:22:25;6.00;99.90
22706;DHT22;11520;51.198;4.468;2022-12-01T06:24:50;6.00;99.90
22706;DHT22;11520;51.198;4.468;2022-12-01T06:27:16;6.00;99.90
22706;DHT22;11520;51.198;4.468;2022-12-01T06:29:43;6.10;99.90
22706;DHT22;11520;51.198;4.468;2022-12-01T06:32:08;6.10;99.90
22706;DHT22;11520;51.198;4.468;2022-12-01T06:34:34;6.10;99.90
22706;DHT22;11520;51.198;4.468;2022-12-01T06:37:00;6.20;99.90
22706;DHT22;11520;51.198;4.468;2022-12-01T06:39:28;6.10;99.90
22706;DHT22;11520;51.198;4.468;2022-12-01T06:41:54;6.10;99.90
22706;DHT22;11520;51.198;4.468;2022-12-01T06:44:21;6.10;99.90
22706;DHT22;11520;51.198;4.468;2022-12-01T06:46:47;6.20;99.90
22706;DHT22;11520;51.198;4.468;2022-12-01T06:49:17;6.30;99.90
22706;DHT22;11520;51.198;4.468;2022-12-01T06:51:43;6.20;99.90
22706;DHT22;11520;51.198;4.468;2022-12-01T06:54:12;6.20;99.90
22706;DHT22;11520;51.198;4.468;2022-12-01T06:56:40;6.20;99.90
22706;DHT22;11520;51.198;4.468;2022-12-01T06:59:08;6.20;99.90
22706;DHT22;11520;51.198;4.468;2022-12-01T07:01:34;6.30;99.90
22706;DHT22;11520;51.198;4.468;2022-12-01T07:03:59;6.40;99.90
22706;DHT22;11520;51.198;4.468;2022-12-01T07:06:25;6.30;99.90
22706;DHT22;11520;51.198;4.468;2022-12-01T07:08:51;6.50;99.90
22706;DHT22;11520;51.198;4.468;2022-12-01T07:11:17;6.40;99.90
22706;DHT22;11520;51.198;4.468;2022-12-01T07:13:43;6.50;99.90
22706;DHT22;11520;51.198;4.468;2022-12-01T07:16:10;6.50;99.90
22706;DHT22;11520;51.198;4.468;2022-12-01T07:18:35;6.40;99.90
22706;DHT22;11520;51.198;4.468;2022-12-01T07:21:08;6.50;99.90
22706;DHT22;11520;51.198;4.468;2022-12-01T07:23:35;6.50;99.90
22706;DHT22;11520;51.198;4.468;2022-12-01T07:26:06;6.50;99.90
22706;DHT22;11520;51.198;4.468;2022-12-01T07:28:33;6.60;99.90
22706;DHT22;11520;51.198;4.468;2022-12-01T07:31:06;6.50;99.90
22706;DHT22;11520;51.198;4.468;2022-12-01T07:33:32;6.50;99.90
22706;DHT22;11520;51.198;4.468;2022-12-01T07:35:58;6.50;99.90
22706;DHT22;11520;51.198;4.468;2022-12-01T07:38:26;6.50;99.90
22706;DHT22;11520;51.198;4.468;2022-12-01T07:40:51;6.50;99.90
22706;DHT22;11520;51.198;4.468;2022-12-01T07:43:18;6.50;99.90
22706;DHT22;11520;51.198;4.468;2022-12-01T07:45:44;6.60;99.90
22706;DHT22;11520;51.198;4.468;2022-12-01T07:48:09;6.70;99.90
22706;DHT22;11520;51.198;4.468;2022-12-01T07:50:35;6.70;99.90
22706;DHT22;11520;51.198;4.468;2022-12-01T07:53:01;6.70;99.90
22706;DHT22;11520;51.198;4.468;2022-12-01T07:55:29;6.80;99.90
22706;DHT22;11520;51.198;4.468;2022-12-01T07:57:58;6.80;99.90
22706;DHT22;11520;51.198;4.468;2022-12-01T08:00:25;6.80;99.90
22706;DHT22;11520;51.198;4.468;2022-12-01T08:02:50;6.80;99.90
22706;DHT22;11520;51.198;4.468;2022-12-01T08:05:16;6.80;99.90
22706;DHT22;11520;51.198;4.468;2022-12-01T08:07:43;6.70;99.90
22706;DHT22;11520;51.198;4.468;2022-12-01T08:10:09;6.80;99.90
22706;DHT22;11520;51.198;4.468;2022-12-01T08:12:34;6.90;99.90
22706;DHT22;11520;51.198;4.468;2022-12-01T08:15:00;6.90;99.90
22706;DHT22;11520;51.198;4.468;2022-12-01T08:17:25;6.90;99.90
22706;DHT22;11520;51.198;4.468;2022-12-01T08:19:51;7.00;99.90
22706;DHT22;11520;51.198;4.468;2022-12-01T08:22:17;7.00;99.90
22706;DHT22;11520;51.198;4.468;2022-12-01T08:24:43;7.10;99.90
22706;DHT22;11520;51.198;4.468;2022-12-01T08:27:08;7.00;99.90
22706;DHT22;11520;51.198;4.468;2022-12-01T08:29:34;7.00;99.90
22706;DHT22;11520;51.198;4.468;2022-12-01T08:32:01;6.90;99.90
22706;DHT22;11520;51.198;4.468;2022-12-01T08:34:27;7.00;99.90
22706;DHT22;11520;51.198;4.468;2022-12-01T08:36:54;7.00;99.90
22706;DHT22;11520;51.198;4.468;2022-12-01T08:39:20;7.10;99.90
22706;DHT22;11520;51.198;4.468;2022-12-01T08:41:47;7.20;99.90
22706;DHT22;11520;51.198;4.468;2022-12-01T08:44:13;7.10;99.90
22706;DHT22;11520;51.198;4.468;2022-12-01T08:46:38;7.00;99.90
22706;DHT22;11520;51.198;4.468;2022-12-01T08:49:05;7.10;99.90
22706;DHT22;11520;51.198;4.468;2022-12-01T08:51:31;7.10;99.90
22706;DHT22;11520;51.198;4.468;2022-12-01T08:53:58;7.20;99.90
22706;DHT22;11520;51.198;4.468;2022-12-01T08:56:30;7.30;99.90
22706;DHT22;11520;51.198;4.468;2022-12-01T08:58:56;7.40;99.90
22706;DHT22;11520;51.198;4.468;2022-12-01T09:01:22;7.50;99.90
22706;DHT22;11520;51.198;4.468;2022-12-01T09:03:50;7.40;99.90
22706;DHT22;11520;51.198;4.468;2022-12-01T09:06:31;7.30;99.90
22706;DHT22;11520;51.198;4.468;2022-12-01T09:08:58;7.20;99.90
22706;DHT22;11520;51.198;4.468;2022-12-01T09:11:25;7.30;99.90
22706;DHT22;11520;51.198;4.468;2022-12-01T09:13:50;7.20;99.90
22706;DHT22;11520;51.198;4.468;2022-12-01T09:16:17;7.30;99.90
22706;DHT22;11520;51.198;4.468;2022-12-01T09:18:45;7.20;99.90
22706;DHT22;11520;51.198;4.468;2022-12-01T09:21:11;7.10;99.90
22706;DHT22;11520;51.198;4.468;2022-12-01T09:23:37;7.30;99.90
22706;DHT22;11520;51.198;4.468;2022-12-01T09:26:04;7.40;99.90
22706;DHT22;11520;51.198;4.468;2022-12-01T09:28:30;7.50;99.90
22706;DHT22;11520;51.198;4.468;2022-12-01T09:30:55;7.30;99.90
22706;DHT22;11520;51.198;4.468;2022-12-01T09:33:21;7.30;99.90
22706;DHT22;11520;51.198;4.468;2022-12-01T09:35:47;7.40;99.90
22706;DHT22;11520;51.198;4.468;2022-12-01T09:38:13;7.50;99.90
22706;DHT22;11520;51.198;4.468;2022-12-01T09:40:40;7.60;99.90
22706;DHT22;11520;51.198;4.468;2022-12-01T09:43:21;7.70;99.90
22706;DHT22;11520;51.198;4.468;2022-12-01T09:46:03;7.70;99.90
22706;DHT22;11520;51.198;4.468;2022-12-01T09:48:36;7.60;99.90
22706;DHT22;11520;51.198;4.468;2022-12-01T09:51:19;7.70;99.90
22706;DHT22;11520;51.198;4.468;2022-12-01T09:53:49;7.80;99.90
22706;DHT22;11520;51.198;4.468;2022-12-01T09:59:00;7.50;99.90
22706;DHT22;11520;51.198;4.468;2022-12-01T10:01:32;7.40;99.90
22706;DHT22;11520;51.198;4.468;2022-12-01T10:04:13;7.40;99.90
22706;DHT22;11520;51.198;4.468;2022-12-01T10:07:05;7.40;99.90
22706;DHT22;11520;51.198;4.468;2022-12-01T10:09:48;7.60;99.90
22706;DHT22;11520;51.198;4.468;2022-12-01T10:12:18;7.70;99.90
22706;DHT22;11520;51.198;4.468;2022-12-01T10:14:48;7.70;99.90
22706;DHT22;11520;51.198;4.468;2022-12-01T10:20:12;7.70;99.90
22706;DHT22;11520;51.198;4.468;2022-12-01T10:28:03;7.60;99.90
22706;DHT22;11520;51.198;4.468;2022-12-01T10:30:34;7.60;99.90
22706;DHT22;11520;51.198;4.468;2022-12-01T10:33:28;7.50;99.90
22706;DHT22;11520;51.198;4.468;2022-12-01T10:35:56;7.60;99.90
22706;DHT22;11520;51.198;4.468;2022-12-01T10:38:33;7.50;99.90
22706;DHT22;11520;51.198;4.468;2022-12-01T10:41:01;7.50;99.90
22706;DHT22;11520;51.198;4.468;2022-12-01T10:43:36;7.80;99.90
22706;DHT22;11520;51.198;4.468;2022-12-01T10:46:15;7.90;99.90
22706;DHT22;11520;51.198;4.468;2022-12-01T10:48:57;7.90;99.90
22706;DHT22;11520;51.198;4.468;2022-12-01T10:51:24;7.80;99.90
22706;DHT22;11520;51.198;4.468;2022-12-01T10:54:12;7.80;99.90
22706;DHT22;11520;51.198;4.468;2022-12-01T10:56:44;7.70;99.90
22706;DHT22;11520;51.198;4.468;2022-12-01T10:59:36;7.80;99.90
22706;DHT22;11520;51.198;4.468;2022-12-01T11:02:14;7.60;99.90
22706;DHT22;11520;51.198;4.468;2022-12-01T11:07:26;7.90;99.90
22706;DHT22;11520;51.198;4.468;2022-12-01T11:10:25;8.10;99.90
22706;DHT22;11520;51.198;4.468;2022-12-01T11:12:56;8.30;99.90
22706;DHT22;11520;51.198;4.468;2022-12-01T11:15:31;8.50;99.90
22706;DHT22;11520;51.198;4.468;2022-12-01T11:18:03;8.50;99.90
22706;DHT22;11520;51.198;4.468;2022-12-01T11:25:35;8.50;99.90
22706;DHT22;11520;51.198;4.468;2022-12-01T11:28:02;8.50;99.90
22706;DHT22;11520;51.198;4.468;2022-12-01T11:30:31;8.20;99.90
22706;DHT22;11520;51.198;4.468;2022-12-01T11:33:00;8.20;99.90
22706;DHT22;11520;51.198;4.468;2022-12-01T11:35:34;8.10;99.90
22706;DHT22;11520;51.198;4.468;2022-12-01T11:38:01;8.10;99.90
22706;DHT22;11520;51.198;4.468;2022-12-01T11:40:31;8.00;99.90
22706;DHT22;11520;51.198;4.468;2022-12-01T11:43:00;8.30;99.90
22706;DHT22;11520;51.198;4.468;2022-12-01T11:45:32;8.20;99.90
22706;DHT22;11520;51.198;4.468;2022-12-01T11:50:38;8.30;99.90
22706;DHT22;11520;51.198;4.468;2022-12-01T11:53:29;8.20;99.90
22706;DHT22;11520;51.198;4.468;2022-12-01T11:58:41;8.10;99.90
22706;DHT22;11520;51.198;4.468;2022-12-01T12:12:15;8.20;99.90
22706;DHT22;11520;51.198;4.468;2022-12-01T12:14:46;8.10;99.90
22706;DHT22;11520;51.198;4.468;2022-12-01T12:17:46;8.10;99.90
22706;DHT22;11520;51.198;4.468;2022-12-01T12:26:07;8.00;99.90
22706;DHT22;11520;51.198;4.468;2022-12-01T12:34:15;8.20;99.90
22706;DHT22;11520;51.198;4.468;2022-12-01T12:36:51;8.40;99.90
22706;DHT22;11520;51.198;4.468;2022-12-01T12:45:02;8.20;99.90
22706;DHT22;11520;51.198;4.468;2022-12-01T12:52:49;8.50;99.90
22706;DHT22;11520;51.198;4.468;2022-12-01T12:55:21;8.60;99.90
22706;DHT22;11520;51.198;4.468;2022-12-01T12:58:00;8.90;99.90
22706;DHT22;11520;51.198;4.468;2022-12-01T13:00:28;8.90;99.90
22706;DHT22;11520;51.198;4.468;2022-12-01T13:13:44;10.30;99.90
22706;DHT22;11520;51.198;4.468;2022-12-01T13:16:22;10.10;99.90
22706;DHT22;11520;51.198;4.468;2022-12-01T13:19:12;10.10;99.90
22706;DHT22;11520;51.198;4.468;2022-12-01T13:21:42;10.30;99.90
22706;DHT22;11520;51.198;4.468;2022-12-01T13:24:14;10.00;99.90
22706;DHT22;11520;51.198;4.468;2022-12-01T13:26:44;9.50;99.90
22706;DHT22;11520;51.198;4.468;2022-12-01T13:29:15;9.50;99.90
22706;DHT22;11520;51.198;4.468;2022-12-01T13:31:51;9.40;99.90
22706;DHT22;11520;51.198;4.468;2022-12-01T13:34:36;9.30;99.90
22706;DHT22;11520;51.198;4.468;2022-12-01T13:37:04;9.30;99.90
22706;DHT22;11520;51.198;4.468;2022-12-01T13:39:36;9.30;99.90
22706;DHT22;11520;51.198;4.468;2022-12-01T13:42:22;9.40;99.90
22706;DHT22;11520;51.198;4.468;2022-12-01T13:44:54;9.10;99.90
22706;DHT22;11520;51.198;4.468;2022-12-01T13:53:26;8.90;99.90
22706;DHT22;11520;51.198;4.468;2022-12-01T14:06:46;7.90;99.90
22706;DHT22;11520;51.198;4.468;2022-12-01T14:09:34;7.90;99.90
22706;DHT22;11520;51.198;4.468;2022-12-01T14:12:13;7.80;99.90
22706;DHT22;11520;51.198;4.468;2022-12-01T14:14:52;7.70;99.90
22706;DHT22;11520;51.198;4.468;2022-12-01T14:17:28;7.70;99.90
22706;DHT22;11520;51.198;4.468;2022-12-01T14:20:03;7.70;99.90
22706;DHT22;11520;51.198;4.468;2022-12-01T14:22:44;7.60;99.90
22706;DHT22;11520;51.198;4.468;2022-12-01T14:27:47;7.70;99.90
22706;DHT22;11520;51.198;4.468;2022-12-01T14:43:55;7.40;99.90
22706;DHT22;11520;51.198;4.468;2022-12-01T14:46:43;7.50;99.90
22706;DHT22;11520;51.198;4.468;2022-12-01T14:49:18;7.60;99.90
22706;DHT22;11520;51.198;4.468;2022-12-01T14:51:47;7.70;99.90
22706;DHT22;11520;51.198;4.468;2022-12-01T14:54:22;7.70;99.90
22706;DHT22;11520;51.198;4.468;2022-12-01T14:56:52;7.80;99.90
22706;DHT22;11520;51.198;4.468;2022-12-01T14:59:24;7.80;99.90
22706;DHT22;11520;51.198;4.468;2022-12-01T15:01:57;7.80;99.90
22706;DHT22;11520;51.198;4.468;2022-12-01T15:04:29;7.80;99.90
22706;DHT22;11520;51.198;4.468;2022-12-01T15:06:56;7.60;99.90
22706;DHT22;11520;51.198;4.468;2022-12-01T15:09:22;7.50;99.90
22706;DHT22;11520;51.198;4.468;2022-12-01T15:12:18;7.40;99.90
22706;DHT22;11520;51.198;4.468;2022-12-01T15:14:49;7.30;99.90
22706;DHT22;11520;51.198;4.468;2022-12-01T15:17:30;7.30;99.90
22706;DHT22;11520;51.198;4.468;2022-12-01T15:19:57;7.20;99.90
22706;DHT22;11520;51.198;4.468;2022-12-01T15:22:28;7.20;99.90
22706;DHT22;11520;51.198;4.468;2022-12-01T15:25:05;7.10;99.90
22706;DHT22;11520;51.198;4.468;2022-12-01T15:27:31;7.00;99.90
22706;DHT22;11520;51.198;4.468;2022-12-01T15:29:59;7.00;99.90
22706;DHT22;11520;51.198;4.468;2022-12-01T15:32:45;6.90;99.90
22706;DHT22;11520;51.198;4.468;2022-12-01T15:35:18;6.80;99.90
22706;DHT22;11520;51.198;4.468;2022-12-01T15:37:45;6.80;99.90
22706;DHT22;11520;51.198;4.468;2022-12-01T15:40:17;6.80;99.90
22706;DHT22;11520;51.198;4.468;2022-12-01T15:42:43;6.90;99.90
22706;DHT22;11520;51.198;4.468;2022-12-01T15:45:21;6.70;99.90
22706;DHT22;11520;51.198;4.468;2022-12-01T15:47:47;6.70;99.90
22706;DHT22;11520;51.198;4.468;2022-12-01T15:50:34;6.70;99.90
22706;DHT22;11520;51.198;4.468;2022-12-01T15:53:16;6.70;99.90
22706;DHT22;11520;51.198;4.468;2022-12-01T15:55:46;6.70;99.90
22706;DHT22;11520;51.198;4.468;2022-12-01T15:58:20;6.70;99.90
22706;DHT22;11520;51.198;4.468;2022-12-01T16:01:02;6.70;99.90
22706;DHT22;11520;51.198;4.468;2022-12-01T16:03:30;6.70;99.90
22706;DHT22;11520;51.198;4.468;2022-12-01T16:06:00;6.70;99.90
22706;DHT22;11520;51.198;4.468;2022-12-01T16:08:27;6.80;99.90
22706;DHT22;11520;51.198;4.468;2022-12-01T16:11:18;6.80;99.90
22706;DHT22;11520;51.198;4.468;2022-12-01T16:13:59;6.90;99.90
22706;DHT22;11520;51.198;4.468;2022-12-01T16:16:49;7.00;99.90
22706;DHT22;11520;51.198;4.468;2022-12-01T16:19:26;7.00;99.90
22706;DHT22;11520;51.198;4.468;2022-12-01T16:24:48;7.10;99.90
22706;DHT22;11520;51.198;4.468;2022-12-01T16:27:32;7.10;99.90
22706;DHT22;11520;51.198;4.468;2022-12-01T16:30:04;7.10;99.90
22706;DHT22;11520;51.198;4.468;2022-12-01T16:32:37;7.20;99.90
22706;DHT22;11520;51.198;4.468;2022-12-01T16:35:23;7.20;99.90
22706;DHT22;11520;51.198;4.468;2022-12-01T16:37:50;7.10;99.90
22706;DHT22;11520;51.198;4.468;2022-12-01T16:40:16;7.00;99.90
22706;DHT22;11520;51.198;4.468;2022-12-01T16:42:43;7.10;99.90
22706;DHT22;11520;51.198;4.468;2022-12-01T16:45:13;7.10;99.90
22706;DHT22;11520;51.198;4.468;2022-12-01T16:47:44;7.20;99.90
22706;DHT22;11520;51.198;4.468;2022-12-01T16:50:19;7.20;99.90
22706;DHT22;11520;51.198;4.468;2022-12-01T16:52:47;7.10;99.90
22706;DHT22;11520;51.198;4.468;2022-12-01T16:55:35;7.10;99.90
22706;DHT22;11520;51.198;4.468;2022-12-01T16:58:03;7.20;99.90
22706;DHT22;11520;51.198;4.468;2022-12-01T17:00:31;7.10;99.90
22706;DHT22;11520;51.198;4.468;2022-12-01T17:02:59;7.10;99.90
22706;DHT22;11520;51.198;4.468;2022-12-01T17:05:25;7.00;99.90
22706;DHT22;11520;51.198;4.468;2022-12-01T17:07:51;6.90;99.90
22706;DHT22;11520;51.198;4.468;2022-12-01T17:10:21;7.00;99.90
22706;DHT22;11520;51.198;4.468;2022-12-01T17:12:47;7.00;99.90
22706;DHT22;11520;51.198;4.468;2022-12-01T17:15:13;7.10;99.90
22706;DHT22;11520;51.198;4.468;2022-12-01T17:17:39;7.10;99.90
22706;DHT22;11520;51.198;4.468;2022-12-01T17:20:06;7.10;99.90
22706;DHT22;11520;51.198;4.468;2022-12-01T17:22:32;7.10;99.90
22706;DHT22;11520;51.198;4.468;2022-12-01T17:25:00;7.10;99.90
22706;DHT22;11520;51.198;4.468;2022-12-01T17:27:27;7.10;99.90
22706;DHT22;11520;51.198;4.468;2022-12-01T17:29:54;7.10;99.90
22706;DHT22;11520;51.198;4.468;2022-12-01T17:32:23;7.20;99.90
22706;DHT22;11520;51.198;4.468;2022-12-01T17:34:49;7.10;99.90
22706;DHT22;11520;51.198;4.468;2022-12-01T17:37:17;7.20;99.90
22706;DHT22;11520;51.198;4.468;2022-12-01T17:39:42;7.10;99.90
22706;DHT22;11520;51.198;4.468;2022-12-01T17:42:09;7.20;99.90
22706;DHT22;11520;51.198;4.468;2022-12-01T17:44:35;7.20;99.90
22706;DHT22;11520;51.198;4.468;2022-12-01T17:47:01;7.10;99.90
22706;DHT22;11520;51.198;4.468;2022-12-01T17:49:26;7.10;99.90
22706;DHT22;11520;51.198;4.468;2022-12-01T17:51:52;7.20;99.90
22706;DHT22;11520;51.198;4.468;2022-12-01T17:54:19;7.20;99.90
22706;DHT22;11520;51.198;4.468;2022-12-01T17:56:46;7.20;99.90
22706;DHT22;11520;51.198;4.468;2022-12-01T17:59:12;7.20;99.90
22706;DHT22;11520;51.198;4.468;2022-12-01T18:01:40;7.30;99.90
22706;DHT22;11520;51.198;4.468;2022-12-01T18:04:08;7.40;99.90
22706;DHT22;11520;51.198;4.468;2022-12-01T18:06:33;7.40;99.90
22706;DHT22;11520;51.198;4.468;2022-12-01T18:08:59;7.40;99.90
22706;DHT22;11520;51.198;4.468;2022-12-01T18:11:28;7.50;99.90
22706;DHT22;11520;51.198;4.468;2022-12-01T18:13:54;7.40;99.90
22706;DHT22;11520;51.198;4.468;2022-12-01T18:16:24;7.40;99.90
22706;DHT22;11520;51.198;4.468;2022-12-01T18:18:50;7.40;99.90
22706;DHT22;11520;51.198;4.468;2022-12-01T18:21:19;7.30;99.90
22706;DHT22;11520;51.198;4.468;2022-12-01T18:23:57;7.20;99.90
22706;DHT22;11520;51.198;4.468;2022-12-01T18:26:24;7.20;99.90